createdAt,value
2018-07-26T00:01:09.828Z,2.10
2018-07-26T00:03:38.973Z,2.00
2018-07-26T00:06:08.011Z,1.87
2018-07-26T00:08:38.190Z,1.73
2018-07-26T00:11:10.013Z,1.63
2018-07-26T00:13:39.122Z,1.80
2018-07-26T00:16:08.423Z,1.90
2018-07-26T00:18:37.534Z,1.50
2018-07-26T00:21:06.814Z,1.50
2018-07-26T00:23:36.030Z,1.60
2018-07-26T00:26:05.620Z,1.60
2018-07-26T00:28:34.882Z,1.50
2018-07-26T00:31:05.579Z,1.60
2018-07-26T00:33:34.658Z,1.60
2018-07-26T00:36:03.749Z,1.63
2018-07-26T00:38:32.879Z,1.60
2018-07-26T00:41:01.873Z,1.60
2018-07-26T00:43:33.684Z,1.70
2018-07-26T00:46:02.808Z,2.10
2018-07-26T00:48:31.989Z,1.77
2018-07-26T00:51:01.215Z,1.87
2018-07-26T00:53:30.318Z,1.67
2018-07-26T00:55:59.105Z,1.80
2018-07-26T00:58:27.982Z,1.47
2018-07-26T01:00:57.881Z,2.00
2018-07-26T01:03:29.311Z,1.40
2018-07-26T01:05:58.699Z,1.80
2018-07-26T01:08:28.376Z,2.10
2018-07-26T01:10:58.250Z,1.83
2018-07-26T01:13:28.158Z,1.90
2018-07-26T01:16:03.874Z,1.90
2018-07-26T01:18:39.263Z,1.80
2018-07-26T01:21:08.972Z,1.90
2018-07-26T01:23:39.106Z,1.80
2018-07-26T01:26:08.555Z,1.73
2018-07-26T01:28:38.323Z,2.00
2018-07-26T01:31:08.238Z,1.90
2018-07-26T01:33:37.815Z,2.10
2018-07-26T01:36:06.868Z,1.93
2018-07-26T01:38:36.124Z,2.00
2018-07-26T01:41:06.462Z,2.20
2018-07-26T01:43:48.971Z,2.03
2018-07-26T01:46:19.925Z,2.20
2018-07-26T01:48:49.573Z,1.90
2018-07-26T01:51:18.928Z,2.00
2018-07-26T01:53:48.302Z,1.87
2018-07-26T01:56:18.468Z,1.93
2018-07-26T01:58:48.073Z,1.93
2018-07-26T02:01:17.289Z,2.00
2018-07-26T02:03:46.885Z,2.10
2018-07-26T02:06:16.864Z,2.00
2018-07-26T02:08:46.663Z,1.90
2018-07-26T02:11:16.564Z,2.20
2018-07-26T02:13:49.813Z,1.90
2018-07-26T02:16:18.615Z,2.10
2018-07-26T02:18:47.587Z,2.03
2018-07-26T02:21:16.896Z,2.10
2018-07-26T02:23:45.980Z,2.00
2018-07-26T02:26:15.301Z,2.13
2018-07-26T02:28:44.602Z,1.90
2018-07-26T02:31:13.852Z,2.20
2018-07-26T02:33:44.166Z,2.27
2018-07-26T02:36:13.334Z,2.20
2018-07-26T02:38:42.562Z,1.80
2018-07-26T02:41:11.919Z,2.10
2018-07-26T02:43:41.034Z,1.97
2018-07-26T02:46:10.191Z,2.17
2018-07-26T02:48:39.183Z,2.17
2018-07-26T02:51:08.247Z,2.17
2018-07-26T02:53:37.261Z,2.00
2018-07-26T02:56:06.187Z,2.23
2018-07-26T02:58:35.268Z,2.17
2018-07-26T03:01:04.457Z,2.43
2018-07-26T03:03:33.478Z,2.23
2018-07-26T03:06:02.794Z,2.20
2018-07-26T03:08:31.993Z,2.00
2018-07-26T03:11:01.229Z,2.27
2018-07-26T03:13:30.598Z,2.27
2018-07-26T03:15:59.628Z,2.70
2018-07-26T03:18:28.723Z,1.97
2018-07-26T03:20:57.916Z,2.20
2018-07-26T03:23:29.810Z,2.20
2018-07-26T03:25:58.708Z,2.10
2018-07-26T03:28:28.071Z,2.30
2018-07-26T03:30:57.331Z,2.70
2018-07-26T03:33:26.501Z,2.20
2018-07-26T03:35:56.853Z,2.30
2018-07-26T03:38:25.915Z,2.20
2018-07-26T03:40:54.992Z,2.47
2018-07-26T03:43:24.030Z,2.53
2018-07-26T03:45:52.901Z,2.80
2018-07-26T03:48:22.178Z,2.57
2018-07-26T03:50:51.295Z,2.70
2018-07-26T03:53:20.235Z,2.60
2018-07-26T03:55:55.225Z,2.40
2018-07-26T03:58:24.512Z,2.90
2018-07-26T04:00:53.589Z,2.60
2018-07-26T04:03:22.562Z,2.80
2018-07-26T04:05:51.723Z,2.60
2018-07-26T04:08:24.252Z,2.70
2018-07-26T04:10:53.493Z,3.00
2018-07-26T04:13:22.720Z,2.70
2018-07-26T04:15:51.946Z,2.63
2018-07-26T04:18:21.039Z,2.70
2018-07-26T04:20:50.186Z,2.47
2018-07-26T04:23:19.345Z,2.30
2018-07-26T04:25:48.585Z,2.40
2018-07-26T04:28:17.779Z,2.60
2018-07-26T04:30:47.049Z,2.77
2018-07-26T04:33:16.004Z,2.03
2018-07-26T04:35:45.036Z,2.33
2018-07-26T04:38:14.317Z,2.33
2018-07-26T04:40:43.127Z,2.53
2018-07-26T04:43:12.016Z,2.60
2018-07-26T04:45:41.355Z,2.40
2018-07-26T04:48:13.543Z,2.83
2018-07-26T04:50:42.697Z,2.33
2018-07-26T04:53:11.694Z,1.97
2018-07-26T04:55:40.921Z,2.20
2018-07-26T04:58:10.165Z,2.50
2018-07-26T05:00:39.469Z,2.27
2018-07-26T05:03:08.477Z,2.33
2018-07-26T05:05:37.521Z,2.30
2018-07-26T05:08:12.731Z,2.60
2018-07-26T05:10:41.979Z,2.70
2018-07-26T05:13:11.106Z,2.20
2018-07-26T05:15:40.442Z,2.00
2018-07-26T05:18:10.266Z,1.95
2018-07-26T05:20:39.673Z,1.85
2018-07-26T05:23:08.931Z,2.12
2018-07-26T05:25:38.185Z,1.90
2018-07-26T05:28:10.496Z,2.12
2018-07-26T05:30:39.642Z,2.20
2018-07-26T05:33:08.820Z,2.20
2018-07-26T05:35:38.070Z,1.80
2018-07-26T05:38:07.164Z,2.27
2018-07-26T05:40:36.074Z,2.15
2018-07-26T05:43:05.086Z,1.90
2018-07-26T05:45:34.104Z,1.87
2018-07-26T05:48:04.503Z,2.05
2018-07-26T05:50:33.813Z,2.10
2018-07-26T05:53:02.877Z,2.10
2018-07-26T05:55:32.116Z,2.50
2018-07-26T05:58:01.286Z,3.02
2018-07-26T06:00:30.355Z,2.60
2018-07-26T06:02:59.611Z,2.22
2018-07-26T06:05:28.847Z,2.12
2018-07-26T06:08:03.456Z,2.25
2018-07-26T06:10:32.625Z,2.10
2018-07-26T06:13:01.758Z,2.30
2018-07-26T06:15:30.544Z,2.27
2018-07-26T06:17:59.690Z,1.90
2018-07-26T06:20:29.017Z,2.10
2018-07-26T06:22:58.537Z,2.12
2018-07-26T06:25:28.003Z,2.12
2018-07-26T06:27:57.404Z,2.22
2018-07-26T06:30:26.559Z,2.30
2018-07-26T06:32:55.684Z,2.35
2018-07-26T06:35:24.913Z,2.62
2018-07-26T06:37:54.191Z,2.52
2018-07-26T06:40:26.292Z,2.40
2018-07-26T06:42:55.504Z,2.00
2018-07-26T06:45:24.632Z,2.08
2018-07-26T06:47:53.889Z,1.90
2018-07-26T06:50:23.020Z,2.08
2018-07-26T06:52:52.203Z,2.15
2018-07-26T06:55:21.374Z,2.42
2018-07-26T06:57:50.633Z,2.08
2018-07-26T07:00:22.916Z,2.55
2018-07-26T07:02:52.151Z,2.00
2018-07-26T07:05:21.416Z,2.33
2018-07-26T07:07:50.610Z,2.00
2018-07-26T07:10:19.739Z,2.30
2018-07-26T07:12:48.619Z,2.33
2018-07-26T07:15:17.589Z,2.17
2018-07-26T07:17:46.682Z,2.25
2018-07-26T07:20:18.582Z,2.30
2018-07-26T07:22:47.839Z,2.00
2018-07-26T07:25:17.366Z,2.42
2018-07-26T07:27:46.667Z,2.20
2018-07-26T07:30:15.987Z,2.10
2018-07-26T07:32:45.318Z,2.30
2018-07-26T07:35:14.596Z,2.05
2018-07-26T07:37:43.471Z,2.40
2018-07-26T07:40:15.857Z,2.27
2018-07-26T07:42:45.193Z,2.50
2018-07-26T07:45:14.529Z,2.33
2018-07-26T07:47:43.482Z,2.30
2018-07-26T07:50:12.348Z,2.42
2018-07-26T07:52:41.388Z,2.50
2018-07-26T07:55:10.543Z,2.35
2018-07-26T07:57:39.664Z,2.55
2018-07-26T08:00:09.294Z,2.27
2018-07-26T08:02:38.706Z,2.40
2018-07-26T08:05:07.798Z,2.08
2018-07-26T08:07:36.940Z,2.58
2018-07-26T08:10:07.640Z,2.55
2018-07-26T08:12:39.440Z,2.77
2018-07-26T08:15:10.107Z,2.50
2018-07-26T08:17:39.143Z,2.25
2018-07-26T08:20:09.542Z,2.80
2018-07-26T08:22:38.634Z,2.25
2018-07-26T08:25:08.522Z,2.42
2018-07-26T08:27:37.930Z,2.35
2018-07-26T08:30:08.634Z,2.42
2018-07-26T08:32:43.553Z,2.40
2018-07-26T08:35:12.728Z,2.30
2018-07-26T08:37:42.001Z,2.60
2018-07-26T08:40:11.090Z,2.45
2018-07-26T08:42:40.323Z,2.33
2018-07-26T08:45:09.304Z,2.20
2018-07-26T08:47:38.448Z,2.70
2018-07-26T08:50:08.064Z,2.45
2018-07-26T08:52:39.902Z,2.17
2018-07-26T08:55:09.174Z,2.22
2018-07-26T08:57:38.614Z,2.50
2018-07-26T09:00:08.191Z,2.35
2018-07-26T09:02:37.532Z,2.55
2018-07-26T09:05:06.281Z,2.33
2018-07-26T09:07:35.230Z,2.50
2018-07-26T09:10:04.335Z,2.20
2018-07-26T09:12:34.446Z,2.25
2018-07-26T09:15:03.543Z,2.45
2018-07-26T09:17:32.685Z,2.22
2018-07-26T09:20:01.709Z,2.47
2018-07-26T09:22:30.956Z,2.50
2018-07-26T09:25:00.190Z,2.47
2018-07-26T09:27:29.137Z,2.33
2018-07-26T09:29:58.304Z,2.30
2018-07-26T09:32:27.155Z,2.30
2018-07-26T09:34:56.241Z,2.30
2018-07-26T09:37:25.342Z,2.40
2018-07-26T09:39:54.180Z,2.60
2018-07-26T09:42:22.783Z,2.20
2018-07-26T09:44:51.717Z,2.02
2018-07-26T09:47:20.778Z,2.60
2018-07-26T09:49:49.994Z,2.15
2018-07-26T09:52:19.302Z,2.30
2018-07-26T09:54:48.431Z,2.58
2018-07-26T09:57:17.486Z,2.12
2018-07-26T09:59:46.678Z,2.42
2018-07-26T10:02:15.922Z,2.60
2018-07-26T10:04:45.279Z,2.60
2018-07-26T10:07:14.495Z,2.20
2018-07-26T10:09:43.611Z,2.83
2018-07-26T10:12:12.739Z,2.55
2018-07-26T10:14:41.660Z,2.52
2018-07-26T10:17:10.655Z,2.50
2018-07-26T10:19:39.708Z,2.47
2018-07-26T10:22:08.976Z,2.80
2018-07-26T10:24:38.265Z,2.22
2018-07-26T10:27:07.285Z,2.17
2018-07-26T10:29:37.350Z,3.08
2018-07-26T10:32:06.341Z,2.70
2018-07-26T10:34:35.231Z,2.70
2018-07-26T10:37:04.365Z,2.55
2018-07-26T10:39:33.560Z,2.60
2018-07-26T10:42:02.726Z,2.33
2018-07-26T10:44:31.970Z,2.77
2018-07-26T10:47:01.797Z,2.37
2018-07-26T10:49:31.016Z,2.25
2018-07-26T10:52:00.604Z,2.30
2018-07-26T10:54:29.781Z,1.75
2018-07-26T10:56:58.914Z,1.50
2018-07-26T10:59:28.202Z,1.67
2018-07-26T11:01:59.704Z,1.77
2018-07-26T11:04:28.833Z,1.62
2018-07-26T11:06:57.864Z,1.72
2018-07-26T11:09:27.002Z,1.90
2018-07-26T11:11:56.011Z,1.65
2018-07-26T11:14:25.162Z,1.50
2018-07-26T11:16:54.295Z,1.72
2018-07-26T11:19:23.466Z,1.30
2018-07-26T11:21:52.916Z,1.60
2018-07-26T11:24:21.982Z,1.50
2018-07-26T11:26:51.102Z,1.70
2018-07-26T11:29:20.159Z,1.37
2018-07-26T11:31:49.382Z,1.40
2018-07-26T11:34:18.669Z,1.40
2018-07-26T11:36:47.574Z,1.40
2018-07-26T11:39:16.593Z,1.32
2018-07-26T11:41:45.772Z,1.62
2018-07-26T11:44:14.784Z,1.40
2018-07-26T11:46:43.695Z,1.17
2018-07-26T11:49:12.598Z,1.42
2018-07-26T11:51:41.727Z,1.60
2018-07-26T11:54:11.830Z,1.62
2018-07-26T11:56:40.883Z,1.30
2018-07-26T11:59:10.269Z,1.30
2018-07-26T12:01:39.577Z,1.20
2018-07-26T12:04:08.735Z,1.75
2018-07-26T12:06:38.097Z,2.15
2018-07-26T12:09:09.957Z,1.40
2018-07-26T12:11:39.368Z,1.65
2018-07-26T12:14:09.389Z,1.67
2018-07-26T12:16:38.196Z,1.60
2018-07-26T12:19:08.653Z,1.72
2018-07-26T12:21:38.035Z,1.70
2018-07-26T12:24:07.197Z,1.80
2018-07-26T12:26:36.561Z,1.52
2018-07-26T12:29:05.869Z,1.55
2018-07-26T12:31:35.280Z,1.62
2018-07-26T12:34:04.750Z,1.60
2018-07-26T12:36:33.750Z,1.70
2018-07-26T12:39:02.414Z,1.70
2018-07-26T12:41:31.575Z,1.57
2018-07-26T12:44:00.666Z,1.40
2018-07-26T12:46:29.611Z,1.32
2018-07-26T12:48:58.544Z,1.47
2018-07-26T12:51:27.715Z,1.72
2018-07-26T12:53:59.912Z,1.72
2018-07-26T12:56:28.842Z,1.20
2018-07-26T12:58:58.040Z,1.55
2018-07-26T13:01:27.914Z,1.75
2018-07-26T13:03:57.856Z,1.60
2018-07-26T13:06:27.028Z,1.40
2018-07-26T13:08:56.325Z,1.30
2018-07-26T13:11:25.383Z,1.50
2018-07-26T13:13:54.495Z,1.32
2018-07-26T13:16:23.985Z,1.40
2018-07-26T13:18:53.202Z,1.30
2018-07-26T13:21:22.409Z,1.50
2018-07-26T13:23:51.478Z,1.55
2018-07-26T13:26:20.794Z,1.60
2018-07-26T13:28:50.212Z,1.60
2018-07-26T13:31:19.700Z,1.60
2018-07-26T13:33:48.974Z,1.60
2018-07-26T13:36:17.972Z,1.57
2018-07-26T13:38:47.150Z,1.27
2018-07-26T13:41:17.114Z,1.30
2018-07-26T13:43:46.473Z,1.20
2018-07-26T13:46:15.674Z,1.17
2018-07-26T13:48:44.857Z,1.55
2018-07-26T13:51:14.192Z,1.55
2018-07-26T13:53:43.349Z,1.47
2018-07-26T13:56:12.556Z,1.40
2018-07-26T13:58:41.763Z,1.60
2018-07-26T14:01:10.923Z,1.62
2018-07-26T14:03:40.613Z,1.70
2018-07-26T14:06:10.190Z,1.60
2018-07-26T14:08:39.804Z,2.00
2018-07-26T14:11:09.872Z,2.00
2018-07-26T14:13:40.104Z,1.45
2018-07-26T14:16:09.572Z,1.50
2018-07-26T14:18:39.322Z,1.82
2018-07-26T14:21:08.477Z,1.70
2018-07-26T14:23:37.851Z,1.72
2018-07-26T14:26:09.365Z,1.25
2018-07-26T14:28:38.548Z,1.50
2018-07-26T14:31:08.236Z,1.40
2018-07-26T14:33:37.991Z,1.80
2018-07-26T14:36:07.670Z,1.50
2018-07-26T14:38:36.750Z,1.90
2018-07-26T14:41:06.236Z,1.80
2018-07-26T14:43:35.404Z,1.70
2018-07-26T14:46:06.326Z,1.67
2018-07-26T14:48:35.947Z,1.92
2018-07-26T14:51:05.224Z,1.80
2018-07-26T14:53:34.409Z,1.90
2018-07-26T14:56:03.733Z,1.62
2018-07-26T14:58:33.121Z,1.60
2018-07-26T15:01:02.585Z,2.10
2018-07-26T15:03:31.575Z,1.87
2018-07-26T15:06:01.165Z,1.90
2018-07-26T15:08:30.154Z,2.25
2018-07-26T15:10:59.909Z,2.20
2018-07-26T15:13:29.090Z,2.05
2018-07-26T15:15:58.025Z,2.20
2018-07-26T15:18:26.918Z,2.10
2018-07-26T15:20:56.185Z,2.08
2018-07-26T15:23:25.149Z,1.80
2018-07-26T15:25:53.916Z,2.17
2018-07-26T15:28:22.974Z,1.75
2018-07-26T15:30:52.259Z,1.60
2018-07-26T15:33:21.473Z,2.10
2018-07-26T15:35:50.722Z,2.27
2018-07-26T15:38:19.954Z,1.92
2018-07-26T15:40:49.128Z,1.82
2018-07-26T15:43:18.386Z,1.92
2018-07-26T15:45:47.610Z,2.10
2018-07-26T15:48:21.257Z,1.50
2018-07-26T15:50:50.262Z,1.85
2018-07-26T15:53:19.313Z,2.00
2018-07-26T15:55:49.500Z,1.98
2018-07-26T15:58:19.328Z,1.80
2018-07-26T16:00:48.440Z,1.65
2018-07-26T16:03:17.822Z,1.57
2018-07-26T16:05:47.114Z,1.67
2018-07-26T16:08:16.323Z,1.95
2018-07-26T16:10:45.697Z,2.10
2018-07-26T16:13:15.014Z,2.00
2018-07-26T16:15:44.212Z,1.75
2018-07-26T16:18:13.427Z,1.92
2018-07-26T16:20:42.698Z,1.98
2018-07-26T16:23:11.920Z,2.17
2018-07-26T16:25:41.143Z,2.12
2018-07-26T16:28:10.550Z,2.37
2018-07-26T16:30:40.110Z,2.22
2018-07-26T16:33:09.348Z,2.17
2018-07-26T16:35:38.776Z,2.45
2018-07-26T16:38:08.197Z,2.00
2018-07-26T16:40:36.973Z,2.45
2018-07-26T16:43:06.219Z,2.15
2018-07-26T16:45:35.553Z,2.30
2018-07-26T16:48:04.956Z,2.30
2018-07-26T16:50:34.682Z,2.27
2018-07-26T16:53:05.462Z,2.35
2018-07-26T16:55:34.652Z,1.95
2018-07-26T16:58:03.928Z,2.00
2018-07-26T17:00:33.707Z,2.35
2018-07-26T17:03:03.677Z,2.05
2018-07-26T17:05:32.854Z,2.25
2018-07-26T17:08:03.061Z,1.98
2018-07-26T17:10:36.081Z,2.60
2018-07-26T17:13:05.779Z,2.10
2018-07-26T17:15:35.524Z,2.33
2018-07-26T17:18:05.070Z,2.08
2018-07-26T17:20:34.921Z,2.02
2018-07-26T17:23:04.538Z,2.33
2018-07-26T17:25:35.574Z,1.90
2018-07-26T17:28:05.250Z,2.20
2018-07-26T17:30:36.283Z,2.40
2018-07-26T17:33:06.841Z,2.35
2018-07-26T17:35:36.455Z,2.37
2018-07-26T17:38:05.408Z,2.55
2018-07-26T17:40:35.997Z,2.72
2018-07-26T17:43:05.345Z,2.65
2018-07-26T17:45:34.618Z,2.20
2018-07-26T17:48:05.276Z,2.40
2018-07-26T17:50:34.470Z,3.02
2018-07-26T17:53:05.167Z,2.58
2018-07-26T17:55:34.902Z,3.08
2018-07-26T17:58:04.419Z,2.72
2018-07-26T18:00:34.627Z,2.67
2018-07-26T18:03:04.241Z,2.55
2018-07-26T18:05:34.153Z,2.77
2018-07-26T18:08:03.458Z,2.50
2018-07-26T18:10:33.482Z,2.83
2018-07-26T18:13:02.873Z,2.95
2018-07-26T18:15:32.529Z,2.95
2018-07-26T18:18:01.719Z,3.17
2018-07-26T18:20:31.182Z,2.85
2018-07-26T18:23:00.581Z,2.85
2018-07-26T18:25:30.059Z,2.50
2018-07-26T18:27:59.185Z,2.75
2018-07-26T18:30:28.533Z,2.60
2018-07-26T18:32:57.890Z,2.62
2018-07-26T18:35:27.079Z,2.60
2018-07-26T18:37:56.285Z,3.27
2018-07-26T18:40:25.178Z,3.12
2018-07-26T18:42:54.272Z,2.72
2018-07-26T18:45:23.548Z,2.62
2018-07-26T18:47:52.725Z,2.85
2018-07-26T18:50:21.912Z,2.83
2018-07-26T18:52:51.255Z,2.58
2018-07-26T18:55:20.298Z,2.40
2018-07-26T18:57:49.518Z,2.75
2018-07-26T19:00:18.823Z,2.50
2018-07-26T19:02:48.167Z,2.83
2018-07-26T19:05:17.522Z,2.60
2018-07-26T19:07:46.623Z,2.50
2018-07-26T19:10:15.801Z,3.20
2018-07-26T19:12:44.939Z,2.70
2018-07-26T19:15:14.506Z,2.40
2018-07-26T19:17:43.698Z,2.85
2018-07-26T19:20:12.796Z,2.20
2018-07-26T19:22:41.990Z,2.80
2018-07-26T19:25:11.952Z,2.72
2018-07-26T19:27:42.026Z,2.60
2018-07-26T19:30:12.920Z,2.58
2018-07-26T19:32:41.809Z,2.87
2018-07-26T19:35:11.322Z,2.72
2018-07-26T19:37:40.509Z,2.58
2018-07-26T19:40:11.224Z,2.75
2018-07-26T19:42:40.997Z,2.77
2018-07-26T19:45:11.064Z,3.30
2018-07-26T19:47:40.654Z,2.77
2018-07-26T19:50:09.927Z,2.67
2018-07-26T19:52:41.953Z,2.77
2018-07-26T19:55:12.277Z,2.98
2018-07-26T19:57:41.608Z,3.12
2018-07-26T20:00:11.458Z,2.80
2018-07-26T20:02:40.713Z,3.20
2018-07-26T20:05:10.308Z,2.87
2018-07-26T20:07:40.475Z,2.77
2018-07-26T20:10:12.450Z,2.58
2018-07-26T20:12:42.974Z,3.45
2018-07-26T20:15:13.330Z,3.25
2018-07-26T20:17:42.841Z,3.30
2018-07-26T20:20:12.640Z,2.60
2018-07-26T20:22:42.474Z,2.70
2018-07-26T20:25:12.262Z,3.05
2018-07-26T20:27:41.585Z,3.10
2018-07-26T20:30:11.817Z,3.12
2018-07-26T20:32:41.387Z,2.72
2018-07-26T20:35:11.012Z,3.02
2018-07-26T20:37:40.873Z,3.20
2018-07-26T20:40:11.820Z,3.55
2018-07-26T20:42:41.806Z,2.92
2018-07-26T20:45:12.796Z,3.10
2018-07-26T20:47:42.840Z,2.70
2018-07-26T20:50:12.298Z,2.70
2018-07-26T20:52:43.786Z,2.90
2018-07-26T20:55:12.892Z,3.67
2018-07-26T20:57:42.079Z,2.95
2018-07-26T21:00:12.769Z,2.83
2018-07-26T21:02:42.497Z,2.70
2018-07-26T21:05:11.736Z,3.17
2018-07-26T21:07:41.081Z,3.08
2018-07-26T21:10:11.362Z,3.30
2018-07-26T21:12:40.571Z,2.80
2018-07-26T21:15:10.314Z,2.55
2018-07-26T21:17:39.484Z,2.62
2018-07-26T21:20:08.731Z,2.30
2018-07-26T21:22:37.774Z,1.60
2018-07-26T21:25:07.009Z,1.95
2018-07-26T21:27:36.359Z,1.67
2018-07-26T21:30:06.315Z,1.87
2018-07-26T21:32:35.351Z,1.70
2018-07-26T21:35:05.285Z,1.70
2018-07-26T21:37:34.092Z,1.37
2018-07-26T21:40:03.253Z,1.40
2018-07-26T21:42:33.699Z,1.50
2018-07-26T21:45:02.948Z,1.40
2018-07-26T21:47:32.343Z,1.57
2018-07-26T21:50:01.579Z,1.70
2018-07-26T21:52:31.055Z,2.00
2018-07-26T21:55:00.190Z,2.00
2018-07-26T21:57:29.315Z,1.70
2018-07-26T21:59:58.271Z,1.93
2018-07-26T22:02:27.360Z,2.30
2018-07-26T22:04:56.400Z,2.00
2018-07-26T22:07:26.957Z,2.80
2018-07-26T22:09:56.134Z,2.07
2018-07-26T22:12:25.062Z,2.70
2018-07-26T22:14:54.165Z,3.23
2018-07-26T22:17:23.371Z,2.80
2018-07-26T22:19:52.700Z,3.07
2018-07-26T22:22:21.816Z,2.30
2018-07-26T22:24:50.948Z,2.60
2018-07-26T22:27:20.110Z,2.27
2018-07-26T22:29:48.856Z,2.37
2018-07-26T22:32:17.983Z,2.13
2018-07-26T22:34:47.171Z,1.97
2018-07-26T22:37:16.411Z,3.50
2018-07-26T22:39:45.402Z,2.20
2018-07-26T22:42:14.417Z,2.30
2018-07-26T22:44:43.643Z,2.50
2018-07-26T22:47:13.182Z,2.17
2018-07-26T22:49:42.928Z,2.30
2018-07-26T22:52:12.161Z,2.27
2018-07-26T22:54:41.552Z,2.90
2018-07-26T22:57:10.952Z,2.57
2018-07-26T22:59:40.183Z,2.93
2018-07-26T23:02:09.398Z,2.10
2018-07-26T23:04:38.617Z,2.70
2018-07-26T23:07:08.183Z,2.60
2018-07-26T23:09:37.411Z,2.83
2018-07-26T23:12:06.878Z,2.30
2018-07-26T23:14:36.099Z,2.27
2018-07-26T23:17:05.246Z,2.33
2018-07-26T23:19:34.364Z,3.27
2018-07-26T23:22:03.867Z,3.10
2018-07-26T23:24:33.073Z,3.47
2018-07-26T23:27:02.188Z,3.80
2018-07-26T23:29:31.363Z,3.13
2018-07-26T23:32:00.709Z,3.27
2018-07-26T23:34:29.904Z,3.17
2018-07-26T23:36:59.088Z,2.67
2018-07-26T23:39:31.034Z,2.73
2018-07-26T23:42:00.268Z,2.83
2018-07-26T23:44:29.414Z,3.10
2018-07-26T23:46:58.725Z,3.00
2018-07-26T23:49:27.825Z,3.00
2018-07-26T23:51:57.749Z,4.00
2018-07-26T23:54:26.864Z,2.97
2018-07-26T23:56:56.100Z,3.90
2018-07-26T23:59:25.447Z,3.80
